Sunday, July 22, 2018, 4:24 PM GMT
Back to Local

CWST, La Pocatiere

Location: , , Canada Lat: 47.35
Local Time: 4:24 PM GMT (16:24 GMT) Lon: -70.033
Time Zone: GMT Elev: 101 ft

Show me the last for .
Show Coded

Time T Td Feel RH Dir Speed Gust Alt SLP Vis Weather Sky Remarks
2018-07-22 16:00 74 62 77 65 360° 8 - - 30.15 0 None
2018-07-22 15:00 76 63 79 63 30° 7 - - 30.16 0 None
2018-07-22 14:00 75 64 78 70 360° 7 - - 30.16 0 None
2018-07-22 13:00 72 62 76 71 20° 7 - - 30.15 0 None
2018-07-22 12:00 70 63 - 80 210° 2 - - 30.16 0 None
2018-07-22 11:00 65 61 - 87 310° 1 - - 30.15 0 None
2018-07-22 10:00 58 56 - 96 40° 1 - - 30.15 0 None
2018-07-22 09:00 54 53 - 96 220° 2 - - 30.13 0 None
2018-07-22 08:00 61 55 - 82 130° 1 - - 30.12 0 None
2018-07-22 07:00 58 55 - 88 190° 1 - - 30.12 0 None
2018-07-22 06:00 64 57 - 78 130° 8 - - 30.11 0 None
2018-07-22 05:00 58 57 - 98 220° 2 - - 30.12 0 None
2018-07-22 04:00 59 59 - 97 240° 3 - - 30.10 0 None
2018-07-22 03:00 64 58 - 81 110° 5 - - 30.09 0 None
2018-07-22 02:00 63 60 - 91 70° 2 - - 30.10 0 None
2018-07-22 01:00 66 62 - 85 40° 2 - - 30.09 0 None
2018-07-22 00:00 73 63 77 71 30° 3 - - 30.08 0 None
2018-07-21 23:00 81 65 83 58 10° 3 - - 30.06 0 None
2018-07-21 22:00 85 64 87 49 350° 5 - - 30.06 0 None
2018-07-21 21:00 86 65 88 49 340° 6 - - 30.06 0 None
2018-07-21 20:00 85 62 86 45 360° 6 - - 30.07 0 None
2018-07-21 19:00 85 62 87 46 330° 3 - - 30.08 0 None
2018-07-21 18:00 84 62 85 48 310° 5 - - 30.09 0 None
2018-07-21 17:00 83 61 84 48 300° 8 - - 30.10 0 None

Support USWX by starting your Amazon purchase here.